Time;durP1;ratioP1;P1;durP2;ratioP2;P2;SDS_P1;SDS_P2;PMS_P1;PMS_P2;Temp;Humidity;BMP_temperature;BMP_pressure;BME280_temperature;BME280_humidity;BME280_pressure;Samples;Min_cycle;Max_cycle;Signal;HPM_P1;HPM_P2
2023/12/06 00:00:00;;;;;;;53.35;24.33;;;1.20;99.90;;;;;;5033378;28;20025;-49
2023/12/06 00:02:26;;;;;;;64.43;25.98;;;1.80;99.90;;;;;;5030999;28;20049;-48
2023/12/06 00:04:51;;;;;;;67.93;27.27;;;2.10;99.90;;;;;;5033309;28;20390;-46
2023/12/06 00:07:17;;;;;;;64.53;27.05;;;1.30;99.90;;;;;;5034195;28;20538;-49
2023/12/06 00:09:43;;;;;;;67.80;26.58;;;1.10;99.90;;;;;;5033962;28;20098;-49
2023/12/06 00:12:08;;;;;;;64.25;26.55;;;2.00;99.90;;;;;;5032171;28;20064;-50
2023/12/06 00:14:34;;;;;;;62.25;26.73;;;2.10;99.90;;;;;;5034399;28;20044;-52
2023/12/06 00:17:00;;;;;;;65.97;26.77;;;2.10;99.90;;;;;;5032914;28;20049;-51
2023/12/06 00:19:26;;;;;;;65.63;26.90;;;2.10;99.90;;;;;;5033364;28;20042;-46
2023/12/06 00:21:51;;;;;;;70.82;26.88;;;1.70;99.90;;;;;;5034129;28;20040;-48
2023/12/06 00:24:17;;;;;;;65.45;26.58;;;1.30;99.90;;;;;;5033568;28;20034;-50
2023/12/06 00:26:43;;;;;;;66.57;27.42;;;2.40;99.90;;;;;;5034065;28;20041;-48
2023/12/06 00:29:09;;;;;;;69.03;27.58;;;2.10;99.90;;;;;;5031424;28;20057;-49
2023/12/06 00:31:35;;;;;;;68.00;26.50;;;1.90;99.90;;;;;;5033897;28;20103;-47
2023/12/06 00:34:00;;;;;;;71.57;27.95;;;2.10;99.90;;;;;;5033452;28;20037;-49
2023/12/06 00:36:26;;;;;;;75.22;28.92;;;2.10;99.90;;;;;;5033798;28;20041;-52
2023/12/06 00:38:52;;;;;;;74.28;28.60;;;1.40;99.90;;;;;;5033769;28;20044;-50
2023/12/06 00:41:18;;;;;;;71.72;28.55;;;1.20;99.90;;;;;;5033631;28;20029;-52
2023/12/06 00:43:43;;;;;;;75.95;28.67;;;1.40;99.90;;;;;;5031821;28;20033;-47
2023/12/06 00:46:10;;;;;;;73.68;29.20;;;2.10;99.90;;;;;;5033186;28;20112;-49
2023/12/06 00:48:36;;;;;;;74.22;28.13;;;1.30;99.90;;;;;;5033268;28;20052;-47
2023/12/06 00:51:02;;;;;;;74.32;28.92;;;2.10;99.90;;;;;;5033798;28;20040;-50
2023/12/06 00:53:28;;;;;;;76.57;27.85;;;3.20;99.90;;;;;;5032148;28;20053;-50
2023/12/06 00:55:54;;;;;;;71.50;28.38;;;1.60;99.90;;;;;;5032234;28;20040;-50
2023/12/06 00:58:20;;;;;;;77.60;29.10;;;1.20;99.90;;;;;;5032733;28;20117;-48
2023/12/06 01:00:46;;;;;;;75.93;27.63;;;1.20;99.90;;;;;;5032519;28;20523;-49
2023/12/06 01:03:12;;;;;;;80.63;30.35;;;1.50;99.90;;;;;;5032709;28;20048;-47
2023/12/06 01:05:37;;;;;;;79.05;29.30;;;1.10;99.90;;;;;;5030319;28;20037;-49
2023/12/06 01:08:03;;;;;;;70.10;26.70;;;2.10;99.90;;;;;;5030741;28;20125;-48
2023/12/06 01:10:29;;;;;;;72.97;28.40;;;1.10;99.90;;;;;;5031402;28;20045;-49
2023/12/06 01:12:55;;;;;;;71.95;27.33;;;1.30;99.90;;;;;;5032735;28;20057;-51
2023/12/06 01:15:21;;;;;;;76.95;28.55;;;2.10;99.90;;;;;;5033247;28;20045;-53
2023/12/06 01:17:47;;;;;;;72.70;26.90;;;1.40;99.90;;;;;;5032862;28;20071;-47
2023/12/06 01:20:12;;;;;;;78.53;29.05;;;1.70;99.90;;;;;;5032730;28;20091;-52
2023/12/06 01:22:38;;;;;;;80.40;29.17;;;2.10;99.90;;;;;;5032937;28;20128;-52
2023/12/06 01:25:04;;;;;;;76.95;29.30;;;1.20;99.90;;;;;;5033055;28;20686;-50
2023/12/06 01:27:30;;;;;;;71.47;28.48;;;1.50;99.90;;;;;;5032588;28;20493;-48
2023/12/06 01:29:56;;;;;;;74.43;28.55;;;2.10;99.90;;;;;;5032166;28;20043;-52
2023/12/06 01:32:21;;;;;;;77.88;29.40;;;1.30;99.90;;;;;;5032357;28;20139;-48
2023/12/06 01:34:47;;;;;;;71.43;28.15;;;2.00;99.90;;;;;;5030939;28;20087;-49
2023/12/06 01:37:13;;;;;;;80.32;29.33;;;1.90;99.90;;;;;;5032688;28;20068;-48
2023/12/06 01:39:39;;;;;;;71.50;28.70;;;2.10;99.90;;;;;;5031223;28;20508;-46
2023/12/06 01:42:04;;;;;;;78.43;28.50;;;1.30;99.90;;;;;;5031504;28;20033;-49
2023/12/06 01:44:30;;;;;;;76.57;29.90;;;2.30;99.90;;;;;;5031515;28;20033;-50
2023/12/06 01:46:56;;;;;;;76.32;28.90;;;1.20;99.90;;;;;;5032014;28;20044;-50
2023/12/06 01:49:22;;;;;;;78.70;29.17;;;1.30;99.90;;;;;;5030037;28;20128;-48
2023/12/06 01:51:48;;;;;;;79.28;28.55;;;2.10;99.90;;;;;;5032145;28;20038;-48
2023/12/06 01:54:14;;;;;;;73.40;27.27;;;1.80;99.90;;;;;;5032183;28;20045;-48
2023/12/06 01:56:42;;;;;;;72.07;27.60;;;1.80;99.90;;;;;;5032485;28;20143;-48
2023/12/06 01:59:11;;;;;;;70.57;27.95;;;1.90;99.90;;;;;;5031048;28;20044;-47
2023/12/06 02:01:37;;;;;;;69.13;26.35;;;1.30;99.90;;;;;;5032279;28;20049;-48
2023/12/06 02:04:03;;;;;;;68.88;27.08;;;2.80;99.90;;;;;;5031679;28;20041;-50
2023/12/06 02:06:30;;;;;;;75.28;27.08;;;1.20;99.90;;;;;;5032344;28;20068;-51
2023/12/06 02:08:57;;;;;;;66.95;26.50;;;1.80;99.90;;;;;;5031059;28;20051;-50
2023/12/06 02:11:23;;;;;;;68.85;26.85;;;1.40;99.90;;;;;;5029409;28;20049;-47
2023/12/06 02:13:49;;;;;;;68.32;26.63;;;1.30;99.90;;;;;;5031786;28;20050;-51
2023/12/06 02:16:16;;;;;;;75.25;28.85;;;1.30;99.90;;;;;;5029647;28;20081;-49
2023/12/06 02:18:42;;;;;;;68.82;25.95;;;2.30;99.90;;;;;;5030307;28;20484;-49
2023/12/06 02:21:08;;;;;;;70.70;27.02;;;1.60;99.90;;;;;;5032179;28;20046;-50
2023/12/06 02:23:37;;;;;;;65.45;25.75;;;1.80;99.90;;;;;;5031422;28;20128;-48
2023/12/06 02:26:03;;;;;;;65.18;28.13;;;1.30;99.90;;;;;;5031539;28;20038;-51
2023/12/06 02:28:29;;;;;;;67.28;26.67;;;2.30;99.90;;;;;;5031701;28;20191;-48
2023/12/06 02:30:54;;;;;;;62.88;27.25;;;1.60;99.90;;;;;;5031513;28;20469;-46
2023/12/06 02:33:22;;;;;;;69.85;25.08;;;2.30;99.90;;;;;;5029734;28;20200;-49
2023/12/06 02:35:53;;;;;;;61.60;24.38;;;1.60;99.90;;;;;;5031717;28;20091;-50
2023/12/06 02:38:19;;;;;;;60.33;24.33;;;1.80;99.90;;;;;;5030280;28;20547;-48
2023/12/06 02:40:48;;;;;;;65.15;25.35;;;2.20;99.90;;;;;;5031792;28;20504;-49
2023/12/06 02:43:15;;;;;;;57.92;24.33;;;2.20;99.90;;;;;;5031076;28;20042;-50
2023/12/06 02:45:41;;;;;;;60.90;23.50;;;1.80;99.90;;;;;;5031340;28;20033;-49
2023/12/06 02:48:08;;;;;;;57.35;24.77;;;2.20;99.90;;;;;;5031242;28;20045;-50
2023/12/06 02:50:33;;;;;;;58.30;24.70;;;1.20;99.90;;;;;;5031423;28;20095;-48
2023/12/06 02:52:59;;;;;;;58.85;24.13;;;1.30;99.90;;;;;;5031198;28;20179;-49
2023/12/06 02:55:25;;;;;;;55.60;25.02;;;1.70;99.90;;;;;;5031252;28;20049;-50
2023/12/06 02:57:50;;;;;;;62.47;24.73;;;1.30;99.90;;;;;;5031290;28;20036;-51
2023/12/06 03:00:17;;;;;;;59.33;26.38;;;1.30;99.90;;;;;;5031350;28;20068;-50
2023/12/06 03:02:42;;;;;;;59.10;24.45;;;1.40;99.90;;;;;;5031323;28;20088;-51
2023/12/06 03:05:08;;;;;;;59.25;24.90;;;1.30;99.90;;;;;;5028602;28;20507;-50
2023/12/06 03:07:34;;;;;;;58.92;25.38;;;2.00;99.90;;;;;;5030463;28;20086;-52
2023/12/06 03:10:03;;;;;;;56.75;25.13;;;2.40;99.90;;;;;;5031047;28;20251;-49
2023/12/06 03:12:28;;;;;;;54.88;25.00;;;2.30;99.90;;;;;;5030551;28;20041;-49
2023/12/06 03:14:54;;;;;;;58.47;25.42;;;1.40;99.90;;;;;;5031333;28;20053;-51
2023/12/06 03:17:20;;;;;;;59.60;24.13;;;2.50;99.90;;;;;;5031120;28;20033;-49
2023/12/06 03:19:45;;;;;;;60.47;24.77;;;2.50;99.90;;;;;;5030563;28;20512;-52
2023/12/06 03:22:11;;;;;;;54.15;23.50;;;1.70;99.90;;;;;;5029354;28;20496;-47
2023/12/06 03:24:37;;;;;;;61.78;24.17;;;2.60;99.90;;;;;;5030456;28;20434;-47
2023/12/06 03:27:03;;;;;;;61.83;25.13;;;2.50;99.90;;;;;;5031015;28;20038;-48
2023/12/06 03:29:28;;;;;;;57.88;24.02;;;2.50;99.90;;;;;;5030620;28;20037;-50
2023/12/06 03:31:54;;;;;;;58.50;25.08;;;2.60;99.90;;;;;;5030613;28;20048;-47
2023/12/06 03:34:20;;;;;;;58.05;24.40;;;2.60;99.90;;;;;;5030280;28;20056;-47
2023/12/06 03:36:45;;;;;;;63.13;25.58;;;1.60;99.90;;;;;;5030827;28;20060;-49
2023/12/06 03:39:12;;;;;;;56.17;24.70;;;1.60;99.90;;;;;;5030393;28;20033;-45
2023/12/06 03:41:38;;;;;;;59.47;25.77;;;2.60;99.90;;;;;;5028673;28;20540;-52
2023/12/06 03:44:03;;;;;;;52.78;23.20;;;1.80;99.90;;;;;;5030833;28;20141;-49
2023/12/06 03:46:29;;;;;;;60.05;24.63;;;2.70;99.90;;;;;;5030568;28;20041;-51
2023/12/06 03:48:55;;;;;;;52.60;23.27;;;2.70;99.90;;;;;;5030187;28;20095;-50
2023/12/06 03:51:21;;;;;;;59.78;24.83;;;1.70;99.90;;;;;;5030259;28;20436;-47
2023/12/06 03:53:46;;;;;;;53.70;24.25;;;2.60;99.90;;;;;;5030303;28;20045;-51
2023/12/06 03:56:12;;;;;;;60.42;23.55;;;2.60;99.90;;;;;;5030574;28;21287;-48
2023/12/06 03:58:38;;;;;;;57.53;24.25;;;2.70;99.90;;;;;;5030561;28;20025;-50
2023/12/06 04:01:04;;;;;;;62.35;24.83;;;2.70;99.90;;;;;;5030668;28;20116;-49
2023/12/06 04:03:30;;;;;;;53.65;23.45;;;1.70;99.90;;;;;;5029692;28;20052;-51
2023/12/06 04:05:56;;;;;;;54.90;25.60;;;2.10;99.90;;;;;;5030373;28;20540;-50
2023/12/06 04:08:22;;;;;;;56.22;24.13;;;2.60;99.90;;;;;;5028953;28;20030;-49
2023/12/06 04:10:47;;;;;;;55.17;22.98;;;2.00;99.90;;;;;;5030489;28;20049;-51
2023/12/06 04:13:13;;;;;;;51.08;22.13;;;2.40;99.90;;;;;;5030032;28;20045;-47
2023/12/06 04:15:39;;;;;;;51.47;23.60;;;2.80;99.90;;;;;;5030546;28;20038;-50
2023/12/06 04:18:05;;;;;;;52.40;23.83;;;1.70;99.90;;;;;;5030356;28;20037;-49
2023/12/06 04:20:31;;;;;;;55.08;22.85;;;2.40;99.90;;;;;;5030006;28;20044;-48
2023/12/06 04:22:57;;;;;;;51.53;23.05;;;2.40;99.90;;;;;;5030541;28;20033;-49
2023/12/06 04:25:22;;;;;;;50.38;22.70;;;1.80;99.90;;;;;;5030218;28;20033;-49
2023/12/06 04:27:48;;;;;;;50.53;22.75;;;2.00;99.90;;;;;;5029994;28;20485;-50
2023/12/06 04:30:14;;;;;;;54.40;23.30;;;2.60;99.90;;;;;;5027430;28;20042;-51
2023/12/06 04:32:40;;;;;;;53.35;24.50;;;2.10;99.90;;;;;;5030216;28;20033;-49
2023/12/06 04:35:09;;;;;;;54.13;21.92;;;2.00;99.90;;;;;;5029470;28;20048;-47
2023/12/06 04:37:35;;;;;;;49.38;22.75;;;2.90;99.90;;;;;;5034059;28;20492;-49
2023/12/06 04:40:00;;;;;;;57.67;22.90;;;2.40;99.90;;;;;;5033656;28;20041;-50
2023/12/06 04:42:26;;;;;;;52.00;21.30;;;2.90;99.90;;;;;;5033708;28;20069;-51
2023/12/06 04:44:52;;;;;;;48.30;21.33;;;2.10;99.90;;;;;;5031932;28;20042;-48
2023/12/06 04:47:18;;;;;;;47.10;21.88;;;2.00;99.90;;;;;;5032563;28;20037;-50
2023/12/06 04:49:44;;;;;;;49.33;22.83;;;2.20;99.90;;;;;;5033176;28;20041;-50
2023/12/06 04:52:09;;;;;;;48.15;21.88;;;2.00;99.90;;;;;;5031170;28;20050;-51
2023/12/06 04:54:35;;;;;;;46.38;22.00;;;2.00;99.90;;;;;;5033571;28;20033;-50
2023/12/06 04:57:00;;;;;;;51.60;23.23;;;2.90;99.90;;;;;;5033608;28;20043;-48
2023/12/06 04:59:26;;;;;;;50.78;22.27;;;2.20;99.90;;;;;;5033284;28;20382;-47
2023/12/06 05:01:53;;;;;;;49.38;22.27;;;2.50;99.90;;;;;;5033467;28;20477;-50
2023/12/06 05:04:19;;;;;;;56.13;24.52;;;2.40;99.90;;;;;;5032958;28;20034;-50
2023/12/06 05:06:44;;;;;;;57.22;24.98;;;2.20;99.90;;;;;;5031705;28;20037;-50
2023/12/06 05:09:11;;;;;;;55.00;24.55;;;3.00;99.90;;;;;;5033426;28;20505;-49
2023/12/06 05:11:37;;;;;;;47.78;22.80;;;2.30;99.90;;;;;;5031878;28;20084;-47
2023/12/06 05:14:03;;;;;;;56.58;23.67;;;2.20;99.90;;;;;;5032557;28;20115;-47
2023/12/06 05:16:29;;;;;;;56.65;25.08;;;2.40;99.90;;;;;;5033036;28;20048;-48
2023/12/06 05:18:54;;;;;;;63.55;24.83;;;2.20;99.90;;;;;;5032910;28;20128;-51
2023/12/06 05:21:20;;;;;;;61.42;25.50;;;2.40;99.90;;;;;;5030235;28;20161;-51
2023/12/06 05:23:46;;;;;;;54.78;24.55;;;2.90;99.90;;;;;;5030504;28;20084;-51
2023/12/06 05:26:12;;;;;;;56.08;24.60;;;2.00;99.90;;;;;;5032725;28;20591;-48
2023/12/06 05:28:37;;;;;;;57.97;25.20;;;2.00;99.90;;;;;;5032808;28;20472;-50
2023/12/06 05:31:03;;;;;;;57.42;23.92;;;2.30;99.90;;;;;;5032414;28;20044;-48
2023/12/06 05:33:29;;;;;;;58.83;23.98;;;2.10;99.90;;;;;;5030499;28;20069;-48
2023/12/06 05:35:57;;;;;;;59.35;24.13;;;2.80;99.90;;;;;;5032601;28;20070;-50
2023/12/06 05:38:23;;;;;;;54.90;24.48;;;3.20;99.90;;;;;;5032262;28;20452;-50
2023/12/06 05:40:50;;;;;;;57.53;24.40;;;2.60;99.90;;;;;;5032343;28;20117;-50
2023/12/06 05:43:16;;;;;;;57.13;24.55;;;3.10;99.90;;;;;;5031649;28;20045;-50
2023/12/06 05:45:41;;;;;;;62.05;24.92;;;2.90;99.90;;;;;;5031575;28;20466;-50
2023/12/06 05:48:07;;;;;;;53.88;23.80;;;2.20;99.90;;;;;;5031974;28;20036;-50
2023/12/06 05:50:33;;;;;;;51.88;23.38;;;3.10;99.90;;;;;;5030163;28;20081;-47
2023/12/06 05:52:59;;;;;;;60.72;24.67;;;2.10;99.90;;;;;;5030514;28;20041;-47
2023/12/06 05:55:25;;;;;;;53.15;22.42;;;2.80;99.90;;;;;;5031586;28;20041;-50
2023/12/06 05:57:51;;;;;;;47.47;22.85;;;3.00;99.90;;;;;;5031004;28;20068;-50
2023/12/06 06:00:17;;;;;;;48.70;21.83;;;3.20;99.90;;;;;;5031890;28;20119;-49
2023/12/06 06:02:43;;;;;;;51.53;22.75;;;2.90;99.90;;;;;;5031901;28;20033;-49
2023/12/06 06:05:10;;;;;;;46.95;21.67;;;3.00;99.90;;;;;;5029362;28;20121;-48
2023/12/06 06:07:36;;;;;;;46.90;22.40;;;2.40;99.90;;;;;;5032124;28;20044;-52
2023/12/06 06:10:02;;;;;;;52.88;21.58;;;3.30;99.90;;;;;;5031979;28;20124;-52
2023/12/06 06:12:28;;;;;;;49.58;21.05;;;3.40;99.90;;;;;;5031557;28;20038;-48
2023/12/06 06:14:55;;;;;;;51.35;23.05;;;2.40;99.90;;;;;;5031855;28;20041;-48
2023/12/06 06:17:21;;;;;;;53.08;21.85;;;2.50;99.90;;;;;;5030743;28;20499;-47
2023/12/06 06:19:46;;;;;;;49.90;22.25;;;2.80;99.90;;;;;;5031568;28;20037;-49
2023/12/06 06:22:12;;;;;;;45.50;22.05;;;3.60;99.90;;;;;;5031722;28;20366;-50
2023/12/06 06:24:38;;;;;;;47.55;22.23;;;2.50;99.90;;;;;;5031422;28;20033;-47
2023/12/06 06:27:04;;;;;;;43.72;20.67;;;3.60;99.90;;;;;;5031910;28;20042;-50
2023/12/06 06:29:29;;;;;;;50.88;22.88;;;2.80;99.90;;;;;;5031827;28;20033;-49
2023/12/06 06:31:55;;;;;;;45.85;21.48;;;3.70;99.90;;;;;;5031764;28;20168;-47
2023/12/06 06:34:21;;;;;;;52.22;22.90;;;3.10;99.90;;;;;;5030900;28;20042;-49
2023/12/06 06:36:46;;;;;;;46.67;21.45;;;3.00;99.90;;;;;;5013515;28;20048;-47
2023/12/06 06:39:12;;;;;;;52.22;22.45;;;2.60;99.90;;;;;;5031275;28;20063;-48
2023/12/06 06:41:39;;;;;;;54.00;22.60;;;3.20;99.90;;;;;;5031536;28;20492;-50
2023/12/06 06:44:05;;;;;;;53.10;22.92;;;2.60;99.90;;;;;;5030614;28;20117;-50
2023/12/06 06:46:31;;;;;;;57.55;24.02;;;3.40;99.90;;;;;;5030322;28;20307;-49
2023/12/06 06:48:56;;;;;;;53.22;22.60;;;3.10;99.90;;;;;;5029035;28;20409;-51
2023/12/06 06:51:35;;;;;;;48.63;22.90;;;3.50;99.90;;;;;;5030603;28;20030;-50
2023/12/06 06:54:05;;;;;;;48.70;21.30;;;2.60;99.90;;;;;;5030922;28;20056;-50
2023/12/06 06:56:31;;;;;;;59.42;21.90;;;3.40;99.90;;;;;;5031165;28;20428;-52
2023/12/06 06:58:57;;;;;;;46.17;21.95;;;3.40;99.90;;;;;;5028457;28;20128;-52
2023/12/06 07:01:23;;;;;;;58.00;22.50;;;2.60;99.90;;;;;;5028990;28;20045;-48
2023/12/06 07:03:49;;;;;;;50.42;22.63;;;2.60;99.90;;;;;;5028693;28;20042;-48
2023/12/06 07:06:14;;;;;;;51.88;22.67;;;2.90;99.90;;;;;;5028982;28;20080;-49
2023/12/06 07:08:40;;;;;;;53.90;21.98;;;3.50;99.90;;;;;;5030136;28;20033;-51
2023/12/06 07:11:07;;;;;;;50.00;22.70;;;3.30;99.90;;;;;;5030807;28;20049;-48
2023/12/06 07:13:34;;;;;;;54.72;22.15;;;2.60;99.90;;;;;;5030491;28;20129;-51
2023/12/06 07:16:00;;;;;;;48.65;21.25;;;3.80;99.90;;;;;;5031027;28;20528;-49
2023/12/06 07:18:27;;;;;;;50.10;21.83;;;2.70;99.90;;;;;;5030140;28;20140;-51
2023/12/06 07:20:53;;;;;;;50.40;23.05;;;3.40;99.90;;;;;;5030084;28;20160;-50
2023/12/06 07:23:19;;;;;;;46.50;21.90;;;3.00;99.90;;;;;;5030322;28;20076;-49
2023/12/06 07:25:45;;;;;;;46.75;21.92;;;2.90;99.90;;;;;;5030686;28;20428;-52
2023/12/06 07:28:12;;;;;;;45.17;21.27;;;2.80;99.90;;;;;;5030590;28;20030;-51
2023/12/06 07:30:38;;;;;;;51.90;23.15;;;3.20;99.90;;;;;;5029403;28;20385;-46
2023/12/06 07:33:03;;;;;;;46.53;21.15;;;3.70;99.90;;;;;;5030798;28;20095;-48
2023/12/06 07:35:29;;;;;;;55.33;22.73;;;3.70;99.90;;;;;;5028998;28;20041;-48
2023/12/06 07:37:55;;;;;;;46.50;20.02;;;2.80;99.90;;;;;;5030494;28;20480;-50
2023/12/06 07:40:21;;;;;;;49.80;21.17;;;2.60;99.90;;;;;;5028951;28;20042;-51
2023/12/06 07:42:48;;;;;;;48.38;22.15;;;3.10;99.90;;;;;;5030652;28;20365;-51
2023/12/06 07:45:14;;;;;;;46.88;21.08;;;3.90;99.90;;;;;;5030510;28;20041;-50
2023/12/06 07:47:40;;;;;;;46.25;21.85;;;3.10;99.90;;;;;;5030697;28;20038;-48
2023/12/06 07:50:09;;;;;;;50.20;22.05;;;3.20;99.90;;;;;;5030742;28;20507;-50
2023/12/06 07:52:36;;;;;;;47.60;23.17;;;3.60;99.90;;;;;;5022914;28;20103;-47
2023/12/06 07:55:06;;;;;;;46.20;21.92;;;2.70;99.90;;;;;;5025673;28;20053;-47
2023/12/06 07:57:35;;;;;;;48.25;21.27;;;3.10;99.90;;;;;;5026547;28;20045;-51
2023/12/06 08:00:07;;;;;;;42.80;20.73;;;2.70;99.90;;;;;;5023607;28;20497;-53
2023/12/06 08:02:34;;;;;;;54.85;21.77;;;3.10;99.90;;;;;;5008602;28;20074;-50
2023/12/06 08:05:02;;;;;;;45.33;20.48;;;3.70;99.90;;;;;;5024654;28;20118;-51
2023/12/06 08:07:28;;;;;;;49.28;20.33;;;3.40;99.90;;;;;;5024705;28;20094;-47
2023/12/06 08:09:54;;;;;;;43.40;19.75;;;4.00;99.90;;;;;;5026890;28;20124;-47
2023/12/06 08:12:20;;;;;;;53.72;21.25;;;2.70;99.90;;;;;;5031064;28;20120;-48
2023/12/06 08:14:46;;;;;;;45.95;21.00;;;3.40;99.90;;;;;;5029301;28;20130;-49
2023/12/06 08:17:11;;;;;;;44.25;19.77;;;3.70;99.90;;;;;;5031246;28;20037;-48
2023/12/06 08:19:37;;;;;;;44.53;20.30;;;2.70;99.90;;;;;;5029758;28;20040;-50
2023/12/06 08:22:03;;;;;;;44.03;20.95;;;3.00;99.90;;;;;;5030725;28;20041;-49
2023/12/06 08:24:28;;;;;;;48.13;21.27;;;3.80;99.90;;;;;;5029551;28;20045;-51
2023/12/06 08:26:54;;;;;;;43.58;20.92;;;3.40;99.90;;;;;;5031689;28;20037;-48
2023/12/06 08:29:20;;;;;;;41.63;20.80;;;3.80;99.90;;;;;;5029657;28;20041;-49
2023/12/06 08:31:46;;;;;;;45.13;20.35;;;2.90;99.90;;;;;;5029981;28;20049;-49
2023/12/06 08:34:11;;;;;;;43.70;20.55;;;3.80;99.90;;;;;;5030671;28;20473;-51
2023/12/06 08:36:37;;;;;;;47.72;20.33;;;3.90;99.90;;;;;;5028933;28;20379;-51
2023/12/06 08:39:03;;;;;;;47.85;21.48;;;3.90;99.90;;;;;;5027837;28;20536;-49
2023/12/06 08:41:29;;;;;;;43.38;21.00;;;3.70;99.90;;;;;;5030518;28;20116;-50
2023/12/06 08:43:54;;;;;;;51.83;22.52;;;3.40;99.90;;;;;;5028286;28;20436;-49
2023/12/06 08:46:20;;;;;;;50.90;22.25;;;3.60;99.90;;;;;;5030940;28;20409;-51
2023/12/06 08:48:46;;;;;;;51.55;21.30;;;3.80;99.90;;;;;;5029775;28;20425;-49
2023/12/06 08:51:12;;;;;;;54.58;21.63;;;3.90;99.90;;;;;;5045456;28;20041;-51
2023/12/06 08:53:38;;;;;;;48.92;22.65;;;4.00;99.90;;;;;;5029771;28;20543;-53
2023/12/06 08:56:04;;;;;;;42.97;21.38;;;3.50;99.90;;;;;;5030479;28;20030;-51
2023/12/06 08:58:29;;;;;;;50.03;22.45;;;3.70;99.90;;;;;;5029310;28;20045;-49
2023/12/06 09:00:55;;;;;;;52.95;22.63;;;3.20;99.90;;;;;;5030865;28;20045;-51
2023/12/06 09:03:21;;;;;;;46.38;20.67;;;4.10;99.90;;;;;;5029547;28;20033;-46
2023/12/06 09:05:48;;;;;;;53.00;22.20;;;3.10;99.90;;;;;;5030795;28;20083;-47
2023/12/06 09:08:14;;;;;;;50.33;21.90;;;3.40;99.90;;;;;;5030358;28;20120;-51
2023/12/06 09:10:40;;;;;;;46.28;21.38;;;3.30;99.90;;;;;;5029151;28;20048;-51
2023/12/06 09:13:05;;;;;;;48.53;21.30;;;3.40;99.90;;;;;;5031024;28;20037;-47
2023/12/06 09:15:31;;;;;;;46.05;21.75;;;4.10;99.90;;;;;;5029469;28;20520;-48
2023/12/06 09:17:57;;;;;;;46.15;21.45;;;4.10;99.90;;;;;;5029445;28;20072;-50
2023/12/06 09:20:23;;;;;;;42.30;20.48;;;3.10;99.90;;;;;;5030821;28;20045;-50
2023/12/06 09:22:50;;;;;;;50.28;21.70;;;3.50;99.90;;;;;;5029574;28;20047;-50
2023/12/06 09:25:16;;;;;;;45.70;21.30;;;3.30;99.90;;;;;;5029789;28;20053;-50
2023/12/06 09:27:42;;;;;;;53.45;21.73;;;4.20;99.90;;;;;;5030708;28;20033;-48
2023/12/06 09:30:08;;;;;;;49.25;22.23;;;3.70;99.90;;;;;;5028675;28;20362;-50
2023/12/06 09:32:34;;;;;;;44.50;20.45;;;4.20;99.90;;;;;;5030108;28;20099;-50
2023/12/06 09:35:00;;;;;;;52.40;23.45;;;3.70;99.90;;;;;;5027745;28;20045;-49
2023/12/06 09:37:26;;;;;;;50.33;22.95;;;4.20;99.90;;;;;;5010418;28;20381;-51
2023/12/06 09:39:53;;;;;;;42.38;20.98;;;4.00;99.90;;;;;;5029451;28;20049;-48
2023/12/06 09:42:19;;;;;;;51.65;21.45;;;4.20;99.90;;;;;;5029706;28;20037;-53
2023/12/06 09:44:45;;;;;;;51.22;21.90;;;3.70;99.90;;;;;;5029500;28;20048;-49
2023/12/06 09:47:14;;;;;;;47.60;21.50;;;3.70;99.90;;;;;;5028431;28;20073;-48
2023/12/06 09:49:40;;;;;;;48.22;20.98;;;3.30;99.90;;;;;;5030312;28;20044;-48
2023/12/06 09:52:09;;;;;;;50.25;21.95;;;3.40;99.90;;;;;;5028312;28;20042;-51
2023/12/06 09:54:42;;;;;;;52.05;22.45;;;4.30;99.90;;;;;;5024549;28;20037;-51
2023/12/06 09:57:08;;;;;;;50.08;22.10;;;3.60;99.90;;;;;;5028447;28;20429;-51
2023/12/06 09:59:33;;;;;;;46.90;21.15;;;3.80;99.90;;;;;;5028870;28;20115;-50
2023/12/06 10:01:59;;;;;;;52.10;23.27;;;4.30;99.90;;;;;;5028179;28;20022;-51
2023/12/06 10:04:25;;;;;;;51.47;22.70;;;4.00;99.90;;;;;;5027903;28;20121;-54
2023/12/06 10:06:51;;;;;;;51.95;22.02;;;4.10;99.90;;;;;;5039171;28;20037;-48
2023/12/06 10:09:16;;;;;;;56.33;22.38;;;3.50;99.90;;;;;;5026963;28;20042;-50
2023/12/06 10:11:42;;;;;;;50.63;21.63;;;4.40;99.90;;;;;;5028223;28;20409;-50
2023/12/06 10:14:18;;;;;;;48.75;22.15;;;4.50;99.90;;;;;;5026367;28;20068;-48
2023/12/06 10:16:45;;;;;;;44.15;22.02;;;4.30;99.90;;;;;;5029706;28;20076;-50
2023/12/06 10:19:12;;;;;;;46.13;21.85;;;3.60;99.90;;;;;;5027682;28;20046;-51
2023/12/06 10:21:39;;;;;;;48.67;22.52;;;3.90;99.90;;;;;;5028631;28;20041;-53
2023/12/06 10:24:07;;;;;;;52.45;22.42;;;4.60;99.90;;;;;;5028309;28;20080;-51
2023/12/06 10:26:33;;;;;;;51.72;22.58;;;3.50;99.90;;;;;;5027946;28;20052;-49
2023/12/06 10:28:59;;;;;;;48.22;22.27;;;4.60;99.90;;;;;;5027001;28;20124;-50
2023/12/06 10:31:25;;;;;;;54.72;22.92;;;4.70;99.90;;;;;;5026241;28;20107;-49
2023/12/06 10:33:56;;;;;;;49.13;21.83;;;4.70;99.90;;;;;;5027076;28;20474;-50
2023/12/06 10:36:25;;;;;;;51.08;22.52;;;4.30;99.90;;;;;;5027245;28;20079;-50
2023/12/06 10:38:51;;;;;;;49.67;21.70;;;3.70;99.90;;;;;;5029291;28;20041;-54
2023/12/06 10:41:20;;;;;;;51.70;21.10;;;4.00;99.90;;;;;;5026764;28;20037;-51
2023/12/06 10:43:47;;;;;;;44.10;21.08;;;4.10;99.90;;;;;;5029667;28;20541;-50
2023/12/06 10:46:15;;;;;;;48.50;21.58;;;4.80;99.90;;;;;;5028564;28;20516;-49
2023/12/06 10:48:42;;;;;;;47.28;22.00;;;4.80;99.90;;;;;;5027776;28;20108;-50
2023/12/06 10:51:09;;;;;;;48.13;21.58;;;4.70;99.90;;;;;;5026577;28;20037;-50
2023/12/06 10:53:38;;;;;;;43.72;20.95;;;4.50;99.90;;;;;;5026849;28;20034;-51
2023/12/06 10:56:04;;;;;;;43.00;21.02;;;4.90;99.90;;;;;;5026801;28;20393;-52
2023/12/06 10:58:30;;;;;;;41.33;21.38;;;4.80;99.90;;;;;;5028370;28;20542;-52
2023/12/06 11:00:58;;;;;;;42.25;19.75;;;4.80;99.90;;;;;;5027813;28;20049;-52
2023/12/06 11:03:24;;;;;;;45.63;19.98;;;4.70;99.90;;;;;;5027517;28;20184;-50
2023/12/06 11:05:53;;;;;;;48.35;21.30;;;5.00;99.90;;;;;;5026642;28;20128;-49
2023/12/06 11:08:31;;;;;;;38.72;19.83;;;4.40;99.90;;;;;;5023383;28;20088;-50
2023/12/06 11:11:05;;;;;;;41.40;17.92;;;4.90;99.90;;;;;;5026170;28;20501;-51
2023/12/06 11:13:43;;;;;;;;;;;4.10;99.90;;;;;;5027175;28;20040;-50
2023/12/06 11:16:11;;;;;;;35.15;17.20;;;4.50;99.90;;;;;;5026260;28;19944;-50
2023/12/06 11:18:49;;;;;;;40.55;18.05;;;4.20;99.90;;;;;;5025134;28;20064;-52
2023/12/06 11:21:18;;;;;;;35.30;17.30;;;5.10;99.90;;;;;;5026138;28;20466;-50
2023/12/06 11:23:45;;;;;;;36.58;17.55;;;4.20;99.90;;;;;;5024372;28;20112;-51
2023/12/06 11:26:11;;;;;;;36.17;18.38;;;4.20;99.90;;;;;;5026198;28;20037;-50
2023/12/06 11:28:39;;;;;;;32.85;17.23;;;4.70;99.90;;;;;;5028028;28;20034;-49
2023/12/06 11:31:05;;;;;;;33.10;16.73;;;4.40;99.90;;;;;;5026612;28;20111;-50
2023/12/06 11:33:31;;;;;;;29.08;16.70;;;5.20;99.90;;;;;;5027131;28;20569;-48
2023/12/06 11:35:57;;;;;;;29.48;15.88;;;4.20;99.90;;;;;;5025973;28;20115;-51
2023/12/06 11:38:33;;;;;;;30.17;14.98;;;4.40;99.90;;;;;;5026999;28;20033;-51
2023/12/06 11:40:59;;;;;;;28.98;14.80;;;5.30;99.90;;;;;;5027279;28;20037;-48
2023/12/06 11:43:31;;;;;;;28.63;13.82;;;4.80;99.90;;;;;;5028031;28;20041;-52
2023/12/06 11:46:08;;;;;;;27.48;15.20;;;5.30;99.90;;;;;;5029757;28;20038;-52
2023/12/06 11:48:38;;;;;;;24.20;14.00;;;5.20;99.90;;;;;;5032873;28;20037;-50
2023/12/06 11:51:05;;;;;;;25.48;13.10;;;4.90;99.90;;;;;;5034136;28;20041;-50
2023/12/06 11:53:34;;;;;;;27.58;13.77;;;4.40;99.90;;;;;;5034398;28;20132;-51
2023/12/06 11:56:00;;;;;;;22.52;13.70;;;4.70;99.90;;;;;;5033503;28;20124;-50
2023/12/06 11:58:30;;;;;;;26.55;13.98;;;4.60;99.90;;;;;;5033939;28;20156;-50
2023/12/06 12:00:59;;;;;;;25.95;13.32;;;5.40;99.90;;;;;;5032108;28;20049;-52
2023/12/06 12:03:26;;;;;;;26.45;13.10;;;5.10;99.90;;;;;;5031994;28;20042;-51
2023/12/06 12:05:53;;;;;;;27.90;13.05;;;4.80;99.90;;;;;;5032614;28;20041;-49
2023/12/06 12:08:20;;;;;;;24.20;13.30;;;5.40;99.90;;;;;;5033208;28;20033;-51
2023/12/06 12:10:46;;;;;;;22.95;12.60;;;5.20;99.90;;;;;;5031332;28;20454;-48
2023/12/06 12:13:19;;;;;;;22.27;12.63;;;5.20;99.90;;;;;;5032962;28;20067;-53
2023/12/06 12:16:04;;;;;;;21.60;12.75;;;5.20;99.90;;;;;;5032642;28;20072;-53
2023/12/06 12:18:29;;;;;;;20.35;11.45;;;4.80;99.90;;;;;;5031112;28;20038;-50
2023/12/06 12:20:58;;;;;;;24.02;12.30;;;5.50;99.90;;;;;;5032778;28;20048;-50
2023/12/06 12:23:25;;;;;;;19.90;11.13;;;4.90;99.90;;;;;;5032642;28;20042;-52
2023/12/06 12:25:51;;;;;;;23.27;11.98;;;4.90;99.90;;;;;;5031823;28;20091;-50
2023/12/06 12:28:21;;;;;;;21.40;11.07;;;5.40;99.90;;;;;;5033004;28;20041;-51
2023/12/06 12:31:03;;;;;;;19.15;10.93;;;5.40;99.90;;;;;;5032185;28;20037;-50
2023/12/06 12:33:29;;;;;;;20.00;10.52;;;4.60;99.90;;;;;;5032731;28;20044;-49